New Orleans, Louisiana
Current Conditions -  °F | °C
As of 10:15 AM on Monday 22 Dec 2014 (Local Time) from KVSH Reporting Station
Overcast Overcast  
Wind Chill: 19°   Ceiling: 1100
Heat Index: 19°   Visibility: 10mi
Dew Point: 16°   Wind: 6mph
Humidity: 83%   Direction: 160°SSE
Pressure: 29.83"   Gusts: NA
Location:  29.95°N, 90.08°W
Report Text: KVSH 221615Z AUTO 16005KT 10SM BKN011 OVC016 19/16 A2983 RMK AO1
Loading
Personal Weather Stations






























Interactive Weather Map New forecast layout! Learn more

10-Day Weather Forecast

Advertisements
Track Severe Weather on mobile